Terminal Aerodrome Forecast
Issued by NWS

Home | Current Version | Previous Version | Text Only | Print | Product List | Glossary On
Versions: 1 2 3 4 5 6 7 8 9 10 11 12 13
000
FTUS46 KHNX 020500
TAFFAT
TAF
KFAT 020520Z 0206/0306 31010KT P6SM SCT250
     FM021000 VRB04KT P6SM FEW250
     FM022100 30010KT P6SM SCT250=

USA.gov is the U.S. government's official web portal to all federal, state and local government web resources and services.